createdAt,value
2023-08-17T00:01:50.558Z,19.70
2023-08-17T00:04:53.479Z,19.83
2023-08-17T00:07:56.268Z,19.79
2023-08-17T00:10:59.144Z,19.81
2023-08-17T00:14:01.883Z,19.67
2023-08-17T00:17:04.803Z,19.60
2023-08-17T00:20:08.292Z,19.48
2023-08-17T00:23:11.596Z,19.45
2023-08-17T00:26:15.457Z,19.47
2023-08-17T00:29:18.526Z,19.45
2023-08-17T00:32:21.277Z,19.35
2023-08-17T00:35:24.031Z,19.33
2023-08-17T00:38:26.861Z,19.34
2023-08-17T00:41:29.943Z,19.11
2023-08-17T00:44:32.686Z,19.06
2023-08-17T00:47:35.573Z,19.12
2023-08-17T00:50:40.587Z,19.10
2023-08-17T00:53:43.853Z,19.07
2023-08-17T00:56:46.768Z,19.09
2023-08-17T01:00:03.078Z,19.19
2023-08-17T01:03:07.284Z,19.16
2023-08-17T01:06:10.770Z,19.24
2023-08-17T01:09:13.605Z,19.42
2023-08-17T01:12:26.067Z,19.45
2023-08-17T01:15:36.446Z,19.53
2023-08-17T01:18:42.310Z,19.65
2023-08-17T01:21:58.175Z,19.66
2023-08-17T01:25:01.204Z,19.61
2023-08-17T01:28:05.554Z,19.55
2023-08-17T01:31:32.912Z,19.53
2023-08-17T01:34:45.893Z,19.56
2023-08-17T01:37:51.896Z,19.69
2023-08-17T01:40:55.725Z,19.73
2023-08-17T01:44:00.550Z,19.69
2023-08-17T01:47:04.548Z,19.47
2023-08-17T01:50:07.516Z,19.41
2023-08-17T01:53:11.053Z,19.40
2023-08-17T01:56:13.849Z,19.35
2023-08-17T01:59:16.706Z,19.15
2023-08-17T02:02:20.493Z,19.22
2023-08-17T02:05:23.244Z,19.44
2023-08-17T02:08:26.549Z,19.52
2023-08-17T02:11:30.064Z,19.65
2023-08-17T02:14:32.836Z,19.68
2023-08-17T02:17:35.729Z,19.69
2023-08-17T02:20:38.961Z,19.77
2023-08-17T02:23:41.712Z,19.70
2023-08-17T02:26:44.488Z,19.79
2023-08-17T02:29:47.290Z,19.84
2023-08-17T02:32:50.636Z,19.88
2023-08-17T02:35:54.022Z,19.92
2023-08-17T02:38:56.789Z,19.84
2023-08-17T02:41:59.557Z,19.68
2023-08-17T02:45:02.253Z,19.65
2023-08-17T02:48:06.119Z,19.76
2023-08-17T02:51:08.932Z,19.79
2023-08-17T02:54:12.042Z,19.84
2023-08-17T02:57:14.837Z,19.82
2023-08-17T03:00:17.635Z,19.85
2023-08-17T03:03:22.194Z,19.87
2023-08-17T03:06:26.268Z,19.89
2023-08-17T03:09:29.301Z,19.93
2023-08-17T03:12:32.445Z,19.90
2023-08-17T03:15:35.359Z,19.80
2023-08-17T03:18:38.092Z,19.80
2023-08-17T03:21:40.845Z,19.80
2023-08-17T03:24:43.860Z,19.83
2023-08-17T03:27:47.034Z,19.79
2023-08-17T03:30:50.973Z,19.70
2023-08-17T03:33:53.683Z,19.67
2023-08-17T03:36:56.471Z,19.61
2023-08-17T03:40:01.699Z,19.58
2023-08-17T03:43:06.575Z,19.62
2023-08-17T03:46:09.857Z,19.63
2023-08-17T03:49:12.735Z,19.66
2023-08-17T03:52:15.574Z,19.50
2023-08-17T03:55:18.396Z,19.47
2023-08-17T03:58:21.144Z,19.26
2023-08-17T04:01:23.946Z,19.16
2023-08-17T04:04:26.970Z,19.33
2023-08-17T04:07:30.192Z,19.44
2023-08-17T04:10:33.211Z,19.49
2023-08-17T04:13:35.929Z,19.54
2023-08-17T04:16:38.680Z,19.39
2023-08-17T04:19:41.469Z,19.37
2023-08-17T04:22:46.134Z,19.32
2023-08-17T04:25:49.486Z,19.24
2023-08-17T04:28:52.209Z,19.38
2023-08-17T04:31:55.190Z,19.48
2023-08-17T04:34:57.994Z,19.14
2023-08-17T04:38:00.930Z,18.96
2023-08-17T04:41:04.549Z,19.08
2023-08-17T04:44:10.532Z,19.27
2023-08-17T04:47:13.379Z,19.42
2023-08-17T04:50:17.677Z,19.62
2023-08-17T04:53:20.770Z,19.88
2023-08-17T04:56:23.680Z,19.99
2023-08-17T04:59:26.465Z,20.10
2023-08-17T05:02:29.329Z,20.12
2023-08-17T05:05:32.233Z,20.10
2023-08-17T05:08:35.891Z,20.18
2023-08-17T05:11:38.965Z,20.31
2023-08-17T05:14:41.775Z,20.40
2023-08-17T05:17:44.582Z,20.34
2023-08-17T05:20:48.570Z,20.32
2023-08-17T05:23:51.333Z,20.48
2023-08-17T05:26:55.353Z,20.61
2023-08-17T05:29:58.159Z,20.54
2023-08-17T05:33:01.004Z,20.55
2023-08-17T05:36:04.582Z,20.57
2023-08-17T05:39:08.112Z,20.57
2023-08-17T05:42:11.246Z,20.36
2023-08-17T05:45:14.043Z,20.59
2023-08-17T05:48:17.127Z,20.69
2023-08-17T05:51:19.919Z,20.84
2023-08-17T05:54:22.638Z,20.93
2023-08-17T05:57:25.489Z,21.07
2023-08-17T06:00:28.470Z,21.10
2023-08-17T06:03:31.277Z,21.10
2023-08-17T06:06:34.478Z,21.09
2023-08-17T06:09:37.153Z,20.91
2023-08-17T06:12:39.904Z,21.03
2023-08-17T06:15:42.651Z,21.04
2023-08-17T06:18:45.422Z,21.09
2023-08-17T06:21:48.141Z,21.21
2023-08-17T06:24:50.857Z,21.39
2023-08-17T06:27:53.646Z,21.67
2023-08-17T06:30:56.988Z,21.92
2023-08-17T06:34:00.049Z,22.12
2023-08-17T06:37:04.704Z,22.29
2023-08-17T06:40:09.002Z,22.56
2023-08-17T06:43:11.862Z,22.80
2023-08-17T06:46:14.663Z,22.90
2023-08-17T06:49:17.579Z,23.21
2023-08-17T06:52:20.329Z,23.51
2023-08-17T06:55:23.094Z,23.77
2023-08-17T06:58:25.789Z,23.81
2023-08-17T07:01:28.523Z,24.12
2023-08-17T07:04:31.410Z,24.37
2023-08-17T07:07:34.512Z,24.20
2023-08-17T07:10:37.403Z,24.09
2023-08-17T07:13:40.144Z,23.67
2023-08-17T07:16:43.408Z,23.82
2023-08-17T07:20:12.486Z,23.60
2023-08-17T07:23:09.042Z,23.99
2023-08-17T07:26:13.046Z,24.30
2023-08-17T07:29:15.951Z,24.21
2023-08-17T07:32:19.595Z,24.11
2023-08-17T07:35:22.443Z,24.17
2023-08-17T07:38:25.529Z,24.52
2023-08-17T07:41:28.424Z,24.30
2023-08-17T07:44:32.865Z,24.05
2023-08-17T07:47:39.611Z,23.52
2023-08-17T07:50:42.398Z,23.63
2023-08-17T07:53:45.147Z,24.07
2023-08-17T07:56:47.879Z,23.54
2023-08-17T07:59:51.949Z,23.73
2023-08-17T08:02:54.754Z,23.85
2023-08-17T08:05:57.451Z,24.18
2023-08-17T08:09:00.117Z,24.05
2023-08-17T08:12:03.598Z,24.58
2023-08-17T08:15:06.788Z,24.90
2023-08-17T08:18:10.688Z,24.90
2023-08-17T08:21:13.565Z,25.10
2023-08-17T08:24:26.515Z,25.23
2023-08-17T08:27:33.633Z,25.32
2023-08-17T08:30:36.660Z,25.56
2023-08-17T08:33:39.410Z,25.51
2023-08-17T08:36:42.094Z,25.45
2023-08-17T08:39:56.159Z,25.29
2023-08-17T08:42:59.225Z,25.99
2023-08-17T08:46:02.687Z,26.50
2023-08-17T08:49:07.880Z,26.55
2023-08-17T08:52:17.208Z,26.92
2023-08-17T08:55:22.769Z,27.13
2023-08-17T08:58:26.875Z,27.33
2023-08-17T09:01:34.818Z,27.63
2023-08-17T09:04:37.697Z,27.75
2023-08-17T09:07:41.084Z,27.73
2023-08-17T09:10:43.944Z,27.72
2023-08-17T09:13:46.732Z,27.77
2023-08-17T09:16:49.457Z,27.89
2023-08-17T09:19:52.444Z,27.88
2023-08-17T09:22:56.007Z,27.62
2023-08-17T09:26:05.870Z,27.55
2023-08-17T09:29:19.656Z,27.97
2023-08-17T09:32:22.453Z,28.11
2023-08-17T09:35:27.174Z,28.39
2023-08-17T09:38:30.854Z,28.16
2023-08-17T09:41:42.113Z,28.21
2023-08-17T09:44:47.222Z,27.89
2023-08-17T09:47:50.098Z,28.01
2023-08-17T09:50:52.881Z,28.12
2023-08-17T09:54:00.234Z,28.38
2023-08-17T09:57:03.697Z,28.06
2023-08-17T10:00:08.474Z,27.89
2023-08-17T10:03:12.031Z,28.37
2023-08-17T10:06:26.591Z,28.29
2023-08-17T10:09:39.836Z,28.09
2023-08-17T10:13:07.666Z,28.78
2023-08-17T10:16:18.786Z,28.50
2023-08-17T10:19:38.496Z,28.22
2023-08-17T10:22:56.412Z,28.64
2023-08-17T10:26:01.701Z,28.72
2023-08-17T10:29:12.663Z,28.24
2023-08-17T10:32:17.407Z,28.72
2023-08-17T10:35:20.517Z,29.05
2023-08-17T10:38:26.130Z,28.45
2023-08-17T10:41:28.965Z,27.69
2023-08-17T10:44:49.871Z,27.57
2023-08-17T10:48:07.105Z,27.50
2023-08-17T10:51:14.212Z,27.87
2023-08-17T10:54:16.998Z,27.52
2023-08-17T10:57:52.433Z,27.37
2023-08-17T11:00:56.629Z,27.47
2023-08-17T11:04:18.201Z,27.39
2023-08-17T11:07:21.037Z,27.41
2023-08-17T11:10:23.905Z,27.50
2023-08-17T11:13:30.663Z,27.90
2023-08-17T11:16:33.481Z,27.82
2023-08-17T11:19:40.791Z,28.17
2023-08-17T11:22:43.701Z,28.02
2023-08-17T11:25:46.629Z,27.87
2023-08-17T11:28:49.477Z,27.64
2023-08-17T11:31:52.421Z,28.13
2023-08-17T11:34:59.567Z,27.65
2023-08-17T11:38:08.138Z,27.43
2023-08-17T11:41:18.415Z,27.49
2023-08-17T11:44:24.347Z,28.36
2023-08-17T11:47:32.642Z,28.41
2023-08-17T11:50:39.844Z,28.21
2023-08-17T11:56:51.527Z,27.77
2023-08-17T11:59:56.476Z,27.35
2023-08-17T12:02:59.319Z,27.58
2023-08-17T12:06:02.177Z,27.49
2023-08-17T12:09:06.752Z,28.30
2023-08-17T12:12:11.082Z,28.28
2023-08-17T12:15:13.857Z,28.46
2023-08-17T12:18:17.289Z,28.75
2023-08-17T12:21:27.275Z,29.44
2023-08-17T12:24:31.320Z,29.91
2023-08-17T12:27:34.304Z,30.01
2023-08-17T12:30:38.698Z,29.96
2023-08-17T12:33:41.452Z,29.26
2023-08-17T12:36:45.174Z,29.06
2023-08-17T12:39:49.025Z,29.45
2023-08-17T12:42:51.812Z,29.67
2023-08-17T12:45:54.547Z,29.87
2023-08-17T12:48:57.266Z,30.11
2023-08-17T12:52:00.203Z,30.23
2023-08-17T12:55:03.165Z,30.01
2023-08-17T12:58:06.953Z,30.08
2023-08-17T13:01:09.810Z,29.91
2023-08-17T13:04:12.528Z,29.45
2023-08-17T13:07:15.694Z,29.36
2023-08-17T13:10:18.522Z,29.49
2023-08-17T13:13:21.878Z,29.42
2023-08-17T13:16:24.640Z,29.73
2023-08-17T13:19:27.441Z,29.92
2023-08-17T13:22:30.246Z,30.09
2023-08-17T13:25:33.344Z,29.63
2023-08-17T13:28:36.058Z,28.97
2023-08-17T13:31:38.923Z,28.93
2023-08-17T13:34:41.713Z,29.09
2023-08-17T13:37:44.606Z,29.01
2023-08-17T13:40:47.342Z,29.26
2023-08-17T13:43:50.091Z,30.34
2023-08-17T13:46:52.822Z,30.93
2023-08-17T13:49:56.985Z,31.49
2023-08-17T13:53:01.590Z,31.81
2023-08-17T13:56:04.578Z,31.94
2023-08-17T13:59:07.312Z,32.14
2023-08-17T14:02:10.021Z,32.46
2023-08-17T14:05:12.704Z,32.24
2023-08-17T14:08:15.542Z,31.84
2023-08-17T14:11:18.357Z,32.39
2023-08-17T14:14:21.520Z,31.80
2023-08-17T14:17:24.301Z,31.96
2023-08-17T14:20:28.154Z,32.43
2023-08-17T14:23:30.904Z,32.22
2023-08-17T14:26:33.741Z,32.13
2023-08-17T14:29:36.426Z,32.35
2023-08-17T14:32:39.164Z,32.68
2023-08-17T14:35:42.717Z,32.64
2023-08-17T14:38:45.447Z,32.60
2023-08-17T14:41:48.179Z,32.74
2023-08-17T14:44:50.901Z,32.88
2023-08-17T14:47:53.779Z,33.16
2023-08-17T14:50:56.991Z,33.05
2023-08-17T14:53:59.865Z,32.88
2023-08-17T14:57:02.985Z,32.90
2023-08-17T15:00:06.440Z,32.76
2023-08-17T15:03:09.333Z,32.61
2023-08-17T15:06:20.343Z,32.74
2023-08-17T15:09:34.824Z,32.78
2023-08-17T15:12:37.563Z,32.78
2023-08-17T15:15:40.538Z,32.63
2023-08-17T15:18:43.325Z,31.38
2023-08-17T15:21:46.060Z,31.85
2023-08-17T15:24:49.055Z,32.23
2023-08-17T15:27:53.116Z,32.09
2023-08-17T15:31:06.773Z,32.03
2023-08-17T15:34:09.536Z,32.13
2023-08-17T15:37:12.671Z,32.09
2023-08-17T15:40:15.487Z,31.71
2023-08-17T15:43:18.174Z,31.31
2023-08-17T15:46:21.005Z,30.98
2023-08-17T15:49:23.794Z,30.89
2023-08-17T15:52:26.483Z,30.78
2023-08-17T15:55:29.312Z,30.73
2023-08-17T15:58:31.995Z,30.54
2023-08-17T16:01:34.804Z,30.40
2023-08-17T16:04:37.642Z,30.30
2023-08-17T16:07:40.378Z,30.02
2023-08-17T16:10:43.146Z,29.85
2023-08-17T16:13:46.448Z,29.62
2023-08-17T16:16:49.913Z,29.38
2023-08-17T16:19:52.655Z,29.20
2023-08-17T16:22:55.381Z,28.92
2023-08-17T16:25:58.112Z,28.54
2023-08-17T16:29:00.912Z,28.30
2023-08-17T16:35:10.547Z,27.91
2023-08-17T16:38:13.547Z,27.73
2023-08-17T16:41:16.530Z,27.62
2023-08-17T16:44:20.934Z,27.59
2023-08-17T16:47:27.694Z,27.52
2023-08-17T16:50:34.209Z,27.55
2023-08-17T16:53:44.035Z,27.50
2023-08-17T16:56:47.366Z,27.52
2023-08-17T16:59:50.083Z,27.45
2023-08-17T17:02:52.851Z,27.39
2023-08-17T17:05:55.816Z,27.25
2023-08-17T17:08:58.621Z,27.18
2023-08-17T17:12:01.490Z,27.24
2023-08-17T17:15:05.195Z,27.22
2023-08-17T17:18:08.081Z,27.19
2023-08-17T17:21:12.761Z,27.14
2023-08-17T17:24:15.536Z,27.08
2023-08-17T17:27:26.758Z,27.00
2023-08-17T17:30:29.922Z,26.99
2023-08-17T17:33:33.134Z,26.94
2023-08-17T17:36:35.909Z,26.85
2023-08-17T17:39:38.642Z,26.77
2023-08-17T17:42:41.472Z,26.70
2023-08-17T17:45:44.233Z,26.56
2023-08-17T17:48:47.247Z,26.49
2023-08-17T17:51:50.179Z,26.37
2023-08-17T17:54:52.920Z,26.23
2023-08-17T17:57:57.143Z,26.18
2023-08-17T18:01:00.108Z,26.15
2023-08-17T18:04:04.919Z,25.94
2023-08-17T18:07:07.898Z,25.99
2023-08-17T18:10:11.088Z,25.94
2023-08-17T18:13:13.822Z,25.90
2023-08-17T18:16:16.708Z,25.83
2023-08-17T18:19:19.696Z,25.87
2023-08-17T18:22:22.486Z,25.77
2023-08-17T18:25:26.449Z,25.80
2023-08-17T18:28:29.613Z,25.69
2023-08-17T18:31:32.444Z,25.60
2023-08-17T18:34:35.505Z,25.60
2023-08-17T18:37:38.255Z,25.60
2023-08-17T18:40:45.608Z,25.67
2023-08-17T18:43:48.571Z,25.63
2023-08-17T18:46:51.791Z,25.48
2023-08-17T18:49:54.702Z,25.43
2023-08-17T18:53:00.462Z,25.17
2023-08-17T18:56:03.331Z,25.00
2023-08-17T18:59:06.176Z,25.15
2023-08-17T19:02:09.075Z,25.17
2023-08-17T19:05:11.870Z,25.24
2023-08-17T19:08:14.899Z,25.18
2023-08-17T19:11:17.635Z,25.12
2023-08-17T19:14:20.366Z,25.07
2023-08-17T19:17:23.135Z,25.01
2023-08-17T19:20:26.089Z,24.92
2023-08-17T19:23:29.020Z,24.87
2023-08-17T19:26:32.051Z,24.82
2023-08-17T19:29:35.069Z,24.77
2023-08-17T19:32:40.979Z,24.67
2023-08-17T19:35:46.095Z,24.56
2023-08-17T19:38:49.360Z,24.53
2023-08-17T19:41:52.281Z,24.47
2023-08-17T19:44:55.336Z,24.37
2023-08-17T19:47:58.083Z,24.31
2023-08-17T19:51:00.840Z,24.14
2023-08-17T19:54:03.740Z,24.04
2023-08-17T19:57:06.516Z,24.10
2023-08-17T20:00:13.217Z,24.13
2023-08-17T20:03:16.102Z,24.04
2023-08-17T20:06:19.207Z,24.07
2023-08-17T20:09:22.038Z,23.93
2023-08-17T20:12:25.121Z,23.85
2023-08-17T20:15:27.880Z,23.90
2023-08-17T20:18:30.615Z,23.93
2023-08-17T20:21:34.365Z,23.78
2023-08-17T20:24:37.917Z,23.57
2023-08-17T20:27:44.036Z,23.57
2023-08-17T20:30:47.380Z,23.35
2023-08-17T20:33:50.322Z,23.33
2023-08-17T20:36:53.067Z,23.44
2023-08-17T20:39:55.801Z,23.26
2023-08-17T20:42:58.641Z,23.20
2023-08-17T20:46:01.781Z,23.05
2023-08-17T20:49:05.711Z,22.84
2023-08-17T20:52:08.992Z,22.87
2023-08-17T20:55:12.041Z,22.78
2023-08-17T20:58:14.873Z,22.83
2023-08-17T21:01:19.719Z,22.83
2023-08-17T21:04:22.754Z,22.77
2023-08-17T21:07:27.609Z,22.73
2023-08-17T21:10:32.849Z,22.69
2023-08-17T21:13:37.034Z,22.67
2023-08-17T21:16:40.354Z,22.64
2023-08-17T21:19:43.505Z,22.54
2023-08-17T21:22:52.993Z,22.49
2023-08-17T21:25:55.704Z,22.45
2023-08-17T21:28:58.568Z,22.39
2023-08-17T21:32:01.261Z,22.30
2023-08-17T21:35:04.085Z,22.25
2023-08-17T21:38:07.096Z,22.33
2023-08-17T21:41:09.867Z,22.27
2023-08-17T21:44:12.597Z,22.34
2023-08-17T21:47:15.486Z,22.32
2023-08-17T21:50:18.997Z,22.22
2023-08-17T21:53:22.784Z,22.10
2023-08-17T21:56:25.706Z,22.07
2023-08-17T21:59:28.665Z,21.85
2023-08-17T22:02:31.478Z,22.00
2023-08-17T22:05:34.392Z,21.97
2023-08-17T22:08:37.312Z,21.92
2023-08-17T22:11:40.087Z,21.99
2023-08-17T22:14:42.892Z,21.98
2023-08-17T22:17:45.819Z,21.92
2023-08-17T22:20:48.789Z,21.96
2023-08-17T22:23:51.502Z,21.93
2023-08-17T22:26:54.236Z,21.84
2023-08-17T22:29:58.178Z,21.82
2023-08-17T22:33:01.025Z,21.82
2023-08-17T22:36:04.471Z,21.84
2023-08-17T22:39:07.233Z,21.86
2023-08-17T22:42:10.221Z,21.86
2023-08-17T22:45:13.379Z,21.87
2023-08-17T22:48:17.633Z,21.88
2023-08-17T22:51:20.474Z,21.84
2023-08-17T22:54:23.194Z,21.83
2023-08-17T22:57:26.079Z,21.79
2023-08-17T23:00:29.165Z,21.79
2023-08-17T23:03:32.194Z,21.75
2023-08-17T23:06:35.053Z,21.67
2023-08-17T23:09:37.923Z,21.64
2023-08-17T23:12:40.795Z,21.61
2023-08-17T23:15:43.579Z,21.63
2023-08-17T23:18:46.327Z,21.64
2023-08-17T23:21:49.062Z,21.65
2023-08-17T23:24:51.758Z,21.61
2023-08-17T23:27:54.548Z,21.62
2023-08-17T23:31:03.249Z,21.59
2023-08-17T23:34:06.731Z,21.67
2023-08-17T23:37:09.466Z,21.63
2023-08-17T23:40:12.686Z,21.56
2023-08-17T23:43:15.488Z,21.66
2023-08-17T23:46:18.311Z,21.67
2023-08-17T23:49:21.032Z,21.58
2023-08-17T23:52:23.752Z,21.47
2023-08-17T23:55:26.497Z,21.49
2023-08-17T23:58:29.269Z,21.53
